createdAt,value
2023-04-27T00:01:49.409Z,100673.80
2023-04-27T00:04:23.657Z,100676.40
2023-04-27T00:06:57.994Z,100678.20
2023-04-27T00:09:32.244Z,100675.80
2023-04-27T00:12:07.158Z,100672.20
2023-04-27T00:14:41.363Z,100674.60
2023-04-27T00:17:15.592Z,100674.20
2023-04-27T00:19:50.229Z,100669.20
2023-04-27T00:22:24.314Z,100670.60
2023-04-27T00:24:58.527Z,100674.40
2023-04-27T00:27:32.586Z,100676.00
2023-04-27T00:30:08.355Z,100677.00
2023-04-27T00:32:42.836Z,100675.80
2023-04-27T00:35:17.291Z,100673.60
2023-04-27T00:37:51.476Z,100672.20
2023-04-27T00:40:26.446Z,100679.00
2023-04-27T00:43:01.079Z,100680.80
2023-04-27T00:45:44.002Z,100679.80
2023-04-27T00:48:19.985Z,100680.60
2023-04-27T00:50:54.403Z,100683.80
2023-04-27T00:53:28.781Z,100684.60
2023-04-27T00:56:03.552Z,100681.80
2023-04-27T00:58:37.925Z,100684.80
2023-04-27T01:01:16.796Z,100684.40
2023-04-27T01:03:51.848Z,100686.00
2023-04-27T01:06:28.266Z,100690.80
2023-04-27T01:09:02.625Z,100687.40
2023-04-27T01:11:37.355Z,100687.80
2023-04-27T01:14:13.336Z,100687.20
2023-04-27T01:16:48.072Z,100686.60
2023-04-27T01:19:22.925Z,100689.00
2023-04-27T01:21:57.918Z,100689.20
2023-04-27T01:24:32.765Z,100680.00
2023-04-27T01:27:06.967Z,100685.80
2023-04-27T01:29:41.721Z,100686.60
2023-04-27T01:32:17.812Z,100686.20
2023-04-27T01:34:51.984Z,100689.00
2023-04-27T01:37:26.059Z,100692.60
2023-04-27T01:40:00.236Z,100697.60
2023-04-27T01:42:36.131Z,100698.20
2023-04-27T01:45:13.725Z,100700.60
2023-04-27T01:47:47.932Z,100701.40
2023-04-27T01:50:22.442Z,100699.80
2023-04-27T01:52:56.577Z,100697.00
2023-04-27T01:55:31.412Z,100701.60
2023-04-27T01:58:05.653Z,100704.20
2023-04-27T02:00:40.189Z,100702.00
2023-04-27T02:03:14.607Z,100704.00
2023-04-27T02:05:49.233Z,100705.60
2023-04-27T02:08:23.642Z,100709.00
2023-04-27T02:10:58.183Z,100713.40
2023-04-27T02:13:32.414Z,100715.40
2023-04-27T02:16:06.803Z,100707.00
2023-04-27T02:18:41.825Z,100707.60
2023-04-27T02:21:17.194Z,100711.80
2023-04-27T02:23:51.965Z,100716.20
2023-04-27T02:26:29.555Z,100712.80
2023-04-27T02:29:04.878Z,100717.00
2023-04-27T02:31:39.767Z,100714.20
2023-04-27T02:34:13.941Z,100716.40
2023-04-27T02:36:48.355Z,100717.00
2023-04-27T02:39:22.683Z,100719.20
2023-04-27T02:41:57.312Z,100724.60
2023-04-27T02:44:32.181Z,100727.00
2023-04-27T02:47:06.642Z,100726.60
2023-04-27T02:49:41.344Z,100726.60
2023-04-27T02:52:15.774Z,100722.00
2023-04-27T02:54:50.121Z,100720.80
2023-04-27T02:57:24.700Z,100720.00
2023-04-27T02:59:59.060Z,100728.20
2023-04-27T03:02:33.608Z,100725.40
2023-04-27T03:05:09.799Z,100726.40
2023-04-27T03:07:44.304Z,100724.20
2023-04-27T03:10:18.687Z,100723.20
2023-04-27T03:12:53.156Z,100729.60
2023-04-27T03:15:29.275Z,100731.60
2023-04-27T03:18:03.780Z,100730.80
2023-04-27T03:20:39.874Z,100730.00
2023-04-27T03:23:14.252Z,100727.80
2023-04-27T03:25:49.403Z,100729.80
2023-04-27T03:28:23.766Z,100733.00
2023-04-27T03:31:06.084Z,100734.00
2023-04-27T03:33:41.328Z,100732.60
2023-04-27T03:36:15.949Z,100740.40
2023-04-27T03:38:50.280Z,100739.20
2023-04-27T03:41:24.562Z,100741.60
2023-04-27T03:43:59.053Z,100742.00
2023-04-27T03:46:33.335Z,100746.80
2023-04-27T03:49:08.238Z,100751.20
2023-04-27T03:51:43.020Z,100754.60
2023-04-27T03:54:17.448Z,100755.20
2023-04-27T03:56:52.535Z,100752.40
2023-04-27T03:59:26.817Z,100756.00
2023-04-27T04:02:01.501Z,100759.60
2023-04-27T04:04:36.471Z,100751.20
2023-04-27T04:07:11.000Z,100750.60
2023-04-27T04:09:45.543Z,100750.60
2023-04-27T04:12:19.682Z,100756.00
2023-04-27T04:14:53.796Z,100759.80
2023-04-27T04:17:28.233Z,100755.20
2023-04-27T04:20:03.120Z,100755.20
2023-04-27T04:22:37.328Z,100758.60
2023-04-27T04:25:13.163Z,100757.60
2023-04-27T04:27:49.806Z,100756.00
2023-04-27T04:30:24.271Z,100756.40
2023-04-27T04:32:58.792Z,100759.20
2023-04-27T04:35:33.278Z,100762.20
2023-04-27T04:38:08.691Z,100765.40
2023-04-27T04:40:46.089Z,100762.00
2023-04-27T04:43:21.565Z,100762.20
2023-04-27T04:45:55.880Z,100761.00
2023-04-27T04:48:30.477Z,100768.60
2023-04-27T04:51:05.814Z,100770.40
2023-04-27T04:53:40.348Z,100767.00
2023-04-27T04:56:17.321Z,100773.20
2023-04-27T04:58:51.496Z,100770.00
2023-04-27T05:01:26.173Z,100771.00
2023-04-27T05:04:01.432Z,100770.40
2023-04-27T05:06:35.870Z,100770.80
2023-04-27T05:09:10.925Z,100772.00
2023-04-27T05:11:45.295Z,100770.20
2023-04-27T05:14:19.759Z,100768.80
2023-04-27T05:16:53.922Z,100773.40
2023-04-27T05:19:29.801Z,100770.60
2023-04-27T05:22:04.851Z,100765.60
2023-04-27T05:24:39.719Z,100767.00
2023-04-27T05:27:15.669Z,100762.00
2023-04-27T05:29:50.306Z,100764.80
2023-04-27T05:32:24.773Z,100761.20
2023-04-27T05:34:59.105Z,100766.20
2023-04-27T05:37:33.555Z,100765.60
2023-04-27T05:40:10.465Z,100764.00
2023-04-27T05:42:47.495Z,100765.40
2023-04-27T05:45:22.642Z,100767.20
2023-04-27T05:47:57.287Z,100768.20
2023-04-27T05:50:32.082Z,100767.80
2023-04-27T05:53:07.155Z,100771.40
2023-04-27T05:55:41.852Z,100777.40
2023-04-27T05:58:16.215Z,100779.00
2023-04-27T06:00:51.405Z,100777.80
2023-04-27T06:03:25.996Z,100772.80
2023-04-27T06:06:02.608Z,100776.60
2023-04-27T06:08:37.616Z,100780.00
2023-04-27T06:11:12.176Z,100783.00
2023-04-27T06:13:46.662Z,100778.00
2023-04-27T06:16:21.714Z,100777.80
2023-04-27T06:18:56.373Z,100771.80
2023-04-27T06:21:34.235Z,100768.20
2023-04-27T06:24:09.760Z,100773.20
2023-04-27T06:26:44.014Z,100772.40
2023-04-27T06:29:18.749Z,100769.60
2023-04-27T06:31:53.231Z,100770.80
2023-04-27T06:34:27.773Z,100770.80
2023-04-27T06:37:02.498Z,100771.20
2023-04-27T06:39:37.014Z,100772.60
2023-04-27T06:42:11.678Z,100775.00
2023-04-27T06:44:46.360Z,100773.80
2023-04-27T06:47:21.296Z,100775.00
2023-04-27T06:49:55.885Z,100779.60
2023-04-27T06:52:32.710Z,100774.20
2023-04-27T06:55:08.215Z,100768.00
2023-04-27T06:57:42.774Z,100766.80
2023-04-27T07:00:22.216Z,100762.40
2023-04-27T07:02:56.783Z,100756.40
2023-04-27T07:05:31.236Z,100757.40
2023-04-27T07:08:08.476Z,100757.20
2023-04-27T07:10:43.732Z,100751.20
2023-04-27T07:13:18.472Z,100745.40
2023-04-27T07:15:58.880Z,100746.00
2023-04-27T07:18:33.512Z,100741.40
2023-04-27T07:21:08.371Z,100746.60
2023-04-27T07:23:44.089Z,100744.20
2023-04-27T07:26:18.492Z,100741.40
2023-04-27T07:28:53.023Z,100741.40
2023-04-27T07:31:28.623Z,100739.40
2023-04-27T07:34:04.008Z,100738.80
2023-04-27T07:36:39.105Z,100738.40
2023-04-27T07:39:13.462Z,100734.00
2023-04-27T07:41:48.278Z,100731.60
2023-04-27T07:44:25.219Z,100732.60
2023-04-27T07:47:04.127Z,100732.80
2023-04-27T07:49:38.403Z,100734.40
2023-04-27T07:52:14.235Z,100742.00
2023-04-27T07:54:48.426Z,100733.40
2023-04-27T07:57:22.821Z,100735.60
2023-04-27T07:59:57.952Z,100737.00
2023-04-27T08:02:34.911Z,100736.40
2023-04-27T08:05:12.538Z,100743.80
2023-04-27T08:07:47.818Z,100738.60
2023-04-27T08:10:22.463Z,100745.60
2023-04-27T08:12:56.786Z,100738.20
2023-04-27T08:15:32.612Z,100738.80
2023-04-27T08:18:07.689Z,100735.80
2023-04-27T08:20:42.211Z,100741.60
2023-04-27T08:23:17.473Z,100736.80
2023-04-27T08:25:52.389Z,100735.80
2023-04-27T08:28:27.085Z,100735.60
2023-04-27T08:31:01.998Z,100741.20
2023-04-27T08:33:36.501Z,100743.80
2023-04-27T08:36:12.027Z,100739.00
2023-04-27T08:38:47.215Z,100740.60
2023-04-27T08:41:26.010Z,100740.40
2023-04-27T08:44:00.402Z,100744.20
2023-04-27T08:46:36.177Z,100743.20
2023-04-27T08:49:11.083Z,100748.60
2023-04-27T08:51:45.939Z,100750.60
2023-04-27T08:54:20.726Z,100748.40
2023-04-27T08:56:55.435Z,100743.40
2023-04-27T08:59:32.513Z,100741.60
2023-04-27T09:02:09.489Z,100743.00
2023-04-27T09:04:45.185Z,100735.60
2023-04-27T09:07:21.372Z,100731.20
2023-04-27T09:10:06.910Z,100725.00
2023-04-27T09:12:42.301Z,100733.80
2023-04-27T09:15:18.249Z,100728.60
2023-04-27T09:17:59.029Z,100727.00
2023-04-27T09:20:33.676Z,100727.60
2023-04-27T09:23:08.343Z,100724.20
2023-04-27T09:25:42.984Z,100716.80
2023-04-27T09:28:20.904Z,100713.80
2023-04-27T09:31:00.870Z,100713.60
2023-04-27T09:33:37.206Z,100709.00
2023-04-27T09:36:12.638Z,100700.60
2023-04-27T09:38:48.119Z,100704.00
2023-04-27T09:41:23.893Z,100712.40
2023-04-27T09:44:01.411Z,100710.80
2023-04-27T09:46:38.745Z,100718.40
2023-04-27T09:49:15.425Z,100718.20
2023-04-27T09:51:50.210Z,100725.60
2023-04-27T09:54:28.093Z,100725.20
2023-04-27T09:57:19.958Z,100721.60
2023-04-27T10:00:11.127Z,100721.60
2023-04-27T10:03:07.818Z,100715.00
2023-04-27T10:06:36.530Z,100709.80
2023-04-27T10:09:15.413Z,100706.40
2023-04-27T10:11:52.533Z,100700.80
2023-04-27T10:14:31.747Z,100695.00
2023-04-27T10:17:14.186Z,100699.60
2023-04-27T10:20:00.254Z,100705.00
2023-04-27T10:22:46.321Z,100704.60
2023-04-27T10:25:26.913Z,100704.60
2023-04-27T10:28:03.900Z,100707.20
2023-04-27T10:30:40.511Z,100719.40
2023-04-27T10:33:20.077Z,100711.60
2023-04-27T10:36:01.824Z,100711.20
2023-04-27T10:38:41.741Z,100711.20
2023-04-27T10:41:19.776Z,100709.80
2023-04-27T10:43:54.406Z,100715.60
2023-04-27T10:46:28.801Z,100709.80
2023-04-27T10:49:06.759Z,100720.00
2023-04-27T10:51:42.518Z,100721.00
2023-04-27T10:54:17.529Z,100723.20
2023-04-27T10:56:53.367Z,100722.20
2023-04-27T10:59:28.229Z,100728.00
2023-04-27T11:02:04.521Z,100731.20
2023-04-27T11:04:44.541Z,100729.20
2023-04-27T11:07:29.926Z,100728.40
2023-04-27T11:10:05.352Z,100731.80
2023-04-27T11:12:41.855Z,100737.40
2023-04-27T11:15:17.780Z,100736.60
2023-04-27T11:17:52.851Z,100738.80
2023-04-27T11:20:31.442Z,100743.20
2023-04-27T11:23:06.112Z,100744.60
2023-04-27T11:25:40.923Z,100742.40
2023-04-27T11:28:24.405Z,100748.40
2023-04-27T11:31:04.553Z,100740.60
2023-04-27T11:33:40.396Z,100744.20
2023-04-27T11:36:27.240Z,100739.60
2023-04-27T11:39:06.485Z,100730.80
2023-04-27T11:41:46.328Z,100738.40
2023-04-27T11:44:20.697Z,100725.40
2023-04-27T11:46:55.089Z,100723.80
2023-04-27T11:49:31.207Z,100707.80
2023-04-27T11:52:05.929Z,100726.00
2023-04-27T11:54:47.690Z,100731.80
2023-04-27T11:57:26.978Z,100739.20
2023-04-27T12:00:09.184Z,100737.20
2023-04-27T12:02:48.776Z,100739.60
2023-04-27T12:05:23.910Z,100744.60
2023-04-27T12:07:58.910Z,100739.20
2023-04-27T12:10:33.215Z,100743.80
2023-04-27T12:13:09.856Z,100747.20
2023-04-27T12:15:44.914Z,100744.40
2023-04-27T12:18:27.325Z,100742.00
2023-04-27T12:21:08.500Z,100736.60
2023-04-27T12:23:43.536Z,100737.80
2023-04-27T12:26:18.474Z,100736.40
2023-04-27T12:28:53.344Z,100735.20
2023-04-27T12:31:28.575Z,100732.40
2023-04-27T12:34:03.047Z,100733.20
2023-04-27T12:36:37.986Z,100737.80
2023-04-27T12:39:21.340Z,100749.00
2023-04-27T12:41:57.097Z,100746.80
2023-04-27T12:44:31.831Z,100753.00
2023-04-27T12:47:06.452Z,100751.60
2023-04-27T12:49:41.162Z,100757.80
2023-04-27T12:52:15.874Z,100759.00
2023-04-27T12:54:51.331Z,100753.80
2023-04-27T12:57:25.672Z,100756.00
2023-04-27T13:00:01.692Z,100747.20
2023-04-27T13:02:37.131Z,100747.40
2023-04-27T13:05:13.303Z,100747.40
2023-04-27T13:07:48.382Z,100748.00
2023-04-27T13:10:22.783Z,100739.80
2023-04-27T13:12:57.958Z,100737.00
2023-04-27T13:15:33.885Z,100739.00
2023-04-27T13:18:08.371Z,100739.00
2023-04-27T13:20:43.167Z,100732.80
2023-04-27T13:23:18.329Z,100723.20
2023-04-27T13:25:53.787Z,100714.40
2023-04-27T13:28:28.269Z,100710.60
2023-04-27T13:31:04.140Z,100707.40
2023-04-27T13:33:44.419Z,100717.40
2023-04-27T13:36:21.128Z,100719.00
2023-04-27T13:38:55.415Z,100723.00
2023-04-27T13:41:29.896Z,100723.40
2023-04-27T13:44:04.403Z,100724.40
2023-04-27T13:46:39.305Z,100724.00
2023-04-27T13:49:14.827Z,100724.60
2023-04-27T13:51:49.254Z,100731.40
2023-04-27T13:54:23.654Z,100742.80
2023-04-27T13:56:58.245Z,100751.00
2023-04-27T13:59:32.576Z,100762.40
2023-04-27T14:02:09.039Z,100769.80
2023-04-27T14:04:43.391Z,100769.40
2023-04-27T14:07:19.042Z,100773.00
2023-04-27T14:09:53.648Z,100774.20
2023-04-27T14:12:28.117Z,100776.80
2023-04-27T14:15:03.286Z,100775.40
2023-04-27T14:17:37.573Z,100772.40
2023-04-27T14:20:13.870Z,100776.80
2023-04-27T14:22:48.885Z,100775.00
2023-04-27T14:25:23.822Z,100773.40
2023-04-27T14:27:58.439Z,100768.60
2023-04-27T14:30:34.163Z,100758.00
2023-04-27T14:33:08.934Z,100745.40
2023-04-27T14:35:43.747Z,100744.20
2023-04-27T14:38:18.269Z,100737.80
2023-04-27T14:40:53.240Z,100736.00
2023-04-27T14:43:27.574Z,100735.80
2023-04-27T14:46:19.286Z,100725.40
2023-04-27T14:48:56.460Z,100717.20
2023-04-27T14:51:32.552Z,100716.40
2023-04-27T14:54:09.239Z,100713.40
2023-04-27T14:56:44.089Z,100714.00
2023-04-27T14:59:18.455Z,100714.80
2023-04-27T15:01:53.371Z,100710.00
2023-04-27T15:04:28.550Z,100712.00
2023-04-27T15:07:03.201Z,100716.60
2023-04-27T15:09:38.803Z,100713.80
2023-04-27T15:12:14.538Z,100715.00
2023-04-27T15:14:50.271Z,100716.00
2023-04-27T15:17:25.036Z,100710.60
2023-04-27T15:19:59.430Z,100708.00
2023-04-27T15:22:33.664Z,100710.00
2023-04-27T15:25:10.077Z,100717.20
2023-04-27T15:27:44.453Z,100716.00
2023-04-27T15:30:19.084Z,100724.80
2023-04-27T15:32:54.928Z,100727.80
2023-04-27T15:35:29.202Z,100736.60
2023-04-27T15:38:03.848Z,100746.60
2023-04-27T15:40:38.567Z,100746.00
2023-04-27T15:43:12.829Z,100753.40
2023-04-27T15:45:49.640Z,100755.00
2023-04-27T15:48:24.000Z,100752.80
2023-04-27T15:50:58.224Z,100754.40
2023-04-27T15:53:32.570Z,100762.60
2023-04-27T15:56:07.156Z,100756.80
2023-04-27T15:58:41.428Z,100751.00
2023-04-27T16:01:15.697Z,100737.80
2023-04-27T16:03:50.209Z,100733.00
2023-04-27T16:06:24.641Z,100727.40
2023-04-27T16:08:59.049Z,100732.60
2023-04-27T16:11:33.785Z,100734.00
2023-04-27T16:14:09.688Z,100737.40
2023-04-27T16:16:43.898Z,100747.80
2023-04-27T16:19:18.912Z,100743.80
2023-04-27T16:21:53.387Z,100741.60
2023-04-27T16:24:27.885Z,100747.60
2023-04-27T16:27:03.685Z,100743.80
2023-04-27T16:29:38.022Z,100738.00
2023-04-27T16:32:12.444Z,100748.80
2023-04-27T16:34:46.966Z,100753.00
2023-04-27T16:37:21.312Z,100751.80
2023-04-27T16:39:59.228Z,100760.40
2023-04-27T16:42:33.552Z,100760.80
2023-04-27T16:45:10.955Z,100768.00
2023-04-27T16:47:46.203Z,100770.00
2023-04-27T16:50:20.567Z,100768.40
2023-04-27T16:52:55.174Z,100769.20
2023-04-27T16:55:29.498Z,100768.00
2023-04-27T16:58:04.218Z,100769.80
2023-04-27T17:00:39.662Z,100772.00
2023-04-27T17:03:13.998Z,100762.20
2023-04-27T17:05:48.642Z,100758.40
2023-04-27T17:08:22.934Z,100761.80
2023-04-27T17:10:57.695Z,100761.40
2023-04-27T17:13:31.947Z,100768.40
2023-04-27T17:16:06.887Z,100771.00
2023-04-27T17:18:41.238Z,100778.60
2023-04-27T17:21:16.821Z,100780.40
2023-04-27T17:23:53.219Z,100782.20
2023-04-27T17:26:27.689Z,100781.00
2023-04-27T17:29:02.178Z,100779.80
2023-04-27T17:31:36.443Z,100782.20
2023-04-27T17:34:10.748Z,100782.40
2023-04-27T17:36:45.138Z,100780.20
2023-04-27T17:39:20.606Z,100784.00
2023-04-27T17:41:54.938Z,100783.40
2023-04-27T17:44:29.211Z,100786.80
2023-04-27T17:47:03.772Z,100793.20
2023-04-27T17:49:38.279Z,100791.40
2023-04-27T17:52:14.222Z,100791.40
2023-04-27T17:54:49.676Z,100795.80
2023-04-27T17:57:24.536Z,100798.60
2023-04-27T18:00:00.366Z,100797.80
2023-04-27T18:02:34.785Z,100795.20
2023-04-27T18:05:11.928Z,100796.40
2023-04-27T18:07:47.577Z,100803.20
2023-04-27T18:10:22.166Z,100807.60
2023-04-27T18:12:56.855Z,100814.60
2023-04-27T18:15:32.104Z,100821.40
2023-04-27T18:18:07.188Z,100823.40
2023-04-27T18:20:44.869Z,100834.20
2023-04-27T18:23:19.713Z,100836.00
2023-04-27T18:25:55.685Z,100848.40
2023-04-27T18:28:29.923Z,100844.00
2023-04-27T18:31:04.774Z,100846.20
2023-04-27T18:33:39.086Z,100850.40
2023-04-27T18:36:14.076Z,100855.80
2023-04-27T18:38:48.610Z,100859.40
2023-04-27T18:41:23.873Z,100861.80
2023-04-27T18:44:06.256Z,100867.60
2023-04-27T18:46:40.975Z,100869.80
2023-04-27T18:49:15.611Z,100876.40
2023-04-27T18:51:50.077Z,100870.80
2023-04-27T18:54:24.354Z,100874.60
2023-04-27T18:56:58.799Z,100882.80
2023-04-27T18:59:33.101Z,100877.60
2023-04-27T19:02:09.412Z,100881.00
2023-04-27T19:04:52.838Z,100886.20
2023-04-27T19:07:32.569Z,100890.80
2023-04-27T19:10:08.514Z,100893.20
2023-04-27T19:12:43.503Z,100892.60
2023-04-27T19:15:18.043Z,100894.40
2023-04-27T19:18:02.855Z,100897.60
2023-04-27T19:20:44.789Z,100894.20
2023-04-27T19:23:20.381Z,100894.20
2023-04-27T19:25:57.669Z,100897.60
2023-04-27T19:28:40.731Z,100895.40
2023-04-27T19:31:15.554Z,100897.80
2023-04-27T19:33:55.404Z,100900.60
2023-04-27T19:36:30.215Z,100901.00
2023-04-27T19:39:06.348Z,100910.00
2023-04-27T19:41:42.111Z,100909.20
2023-04-27T19:44:16.525Z,100906.00
2023-04-27T19:46:50.959Z,100904.40
2023-04-27T19:49:25.572Z,100899.40
2023-04-27T19:51:59.989Z,100903.00
2023-04-27T19:54:36.037Z,100906.80
2023-04-27T19:57:10.805Z,100906.40
2023-04-27T19:59:45.248Z,100898.60
2023-04-27T20:02:20.100Z,100902.60
2023-04-27T20:04:54.807Z,100897.00
2023-04-27T20:07:29.375Z,100897.20
2023-04-27T20:10:04.592Z,100900.60
2023-04-27T20:12:52.053Z,100899.00
2023-04-27T20:15:30.464Z,100901.00
2023-04-27T20:18:04.947Z,100905.20
2023-04-27T20:20:42.063Z,100903.00
2023-04-27T20:23:16.447Z,100901.00
2023-04-27T20:25:51.744Z,100905.80
2023-04-27T20:28:28.010Z,100905.20
2023-04-27T20:31:04.210Z,100911.80
2023-04-27T20:33:38.608Z,100909.80
2023-04-27T20:36:17.851Z,100913.40
2023-04-27T20:38:52.736Z,100909.40
2023-04-27T20:41:27.089Z,100913.40
2023-04-27T20:44:02.337Z,100911.40
2023-04-27T20:46:36.996Z,100913.40
2023-04-27T20:49:12.236Z,100906.20
2023-04-27T20:51:48.072Z,100910.40
2023-04-27T20:54:22.539Z,100918.20
2023-04-27T20:56:56.973Z,100916.40
2023-04-27T20:59:31.441Z,100912.80
2023-04-27T21:02:08.013Z,100914.60
2023-04-27T21:04:42.804Z,100913.40
2023-04-27T21:07:20.157Z,100907.40
2023-04-27T21:09:54.593Z,100912.80
2023-04-27T21:12:28.909Z,100908.60
2023-04-27T21:15:03.421Z,100900.40
2023-04-27T21:17:38.090Z,100899.80
2023-04-27T21:20:14.297Z,100895.20
2023-04-27T21:22:48.607Z,100897.80
2023-04-27T21:25:23.839Z,100901.80
2023-04-27T21:27:58.185Z,100900.60
2023-04-27T21:30:32.728Z,100898.60
2023-04-27T21:33:08.235Z,100908.20
2023-04-27T21:35:42.456Z,100908.00
2023-04-27T21:38:16.930Z,100913.40
2023-04-27T21:40:51.448Z,100913.40
2023-04-27T21:43:26.185Z,100914.80
2023-04-27T21:46:00.380Z,100915.20
2023-04-27T21:48:34.564Z,100910.20
2023-04-27T21:51:08.935Z,100913.40
2023-04-27T21:53:43.140Z,100919.20
2023-04-27T21:56:17.410Z,100918.00
2023-04-27T21:58:52.141Z,100917.00
2023-04-27T22:01:27.262Z,100912.20
2023-04-27T22:04:02.443Z,100913.40
2023-04-27T22:06:36.666Z,100912.40
2023-04-27T22:09:12.223Z,100910.60
2023-04-27T22:11:46.661Z,100918.20
2023-04-27T22:14:21.038Z,100908.00
2023-04-27T22:16:55.523Z,100910.20
2023-04-27T22:19:30.572Z,100909.00
2023-04-27T22:22:05.125Z,100916.40
2023-04-27T22:24:39.799Z,100911.20
2023-04-27T22:27:14.019Z,100912.20
2023-04-27T22:29:48.175Z,100910.40
2023-04-27T22:32:22.277Z,100916.60
2023-04-27T22:34:56.502Z,100909.20
2023-04-27T22:37:31.123Z,100911.80
2023-04-27T22:40:06.563Z,100908.60
2023-04-27T22:42:41.481Z,100912.00
2023-04-27T22:45:16.661Z,100911.80
2023-04-27T22:47:51.008Z,100908.20
2023-04-27T22:50:25.564Z,100906.80
2023-04-27T22:53:00.671Z,100908.20
2023-04-27T22:55:35.165Z,100903.80
2023-04-27T22:58:09.285Z,100905.60
2023-04-27T23:00:45.163Z,100905.40
2023-04-27T23:03:21.003Z,100904.80
2023-04-27T23:05:55.309Z,100899.00
2023-04-27T23:08:29.659Z,100897.40
2023-04-27T23:11:03.838Z,100896.40
2023-04-27T23:13:38.147Z,100895.40
2023-04-27T23:16:14.884Z,100897.20
2023-04-27T23:18:49.060Z,100892.40
2023-04-27T23:21:23.271Z,100891.80
2023-04-27T23:23:57.473Z,100892.80
2023-04-27T23:26:31.684Z,100890.00
2023-04-27T23:29:05.950Z,100892.80
2023-04-27T23:31:40.412Z,100897.60
2023-04-27T23:34:14.912Z,100901.40
2023-04-27T23:36:49.277Z,100902.80
2023-04-27T23:39:23.449Z,100897.80
2023-04-27T23:41:58.242Z,100899.00
2023-04-27T23:44:32.414Z,100899.00
2023-04-27T23:47:07.657Z,100892.80
2023-04-27T23:49:43.884Z,100892.60
2023-04-27T23:52:18.059Z,100897.40
2023-04-27T23:54:52.367Z,100896.80
2023-04-27T23:57:26.661Z,100899.00
